sensor_id;sensor_type;location;lat;lon;timestamp;pressure;altitude;pressure_sealevel;temperature;humidity
40918;BME280;26644;50.248;19.032;2023-05-19T00:01:21;99047.78;;;8.41;78.17
40918;BME280;26644;50.248;19.032;2023-05-19T00:04:27;99058.22;;;8.44;78.17
40918;BME280;26644;50.248;19.032;2023-05-19T00:07:38;99060.97;;;8.44;78.31
40918;BME280;26644;50.248;19.032;2023-05-19T00:10:43;99057.63;;;8.42;78.24
40918;BME280;26644;50.248;19.032;2023-05-19T00:13:49;99064.78;;;8.43;78.51
40918;BME280;26644;50.248;19.032;2023-05-19T00:16:56;99064.03;;;8.48;78.56
40918;BME280;26644;50.248;19.032;2023-05-19T00:20:03;99064.59;;;8.50;78.59
40918;BME280;26644;50.248;19.032;2023-05-19T00:23:11;99053.91;;;8.49;78.78
40918;BME280;26644;50.248;19.032;2023-05-19T00:26:17;99047.66;;;8.53;79.04
40918;BME280;26644;50.248;19.032;2023-05-19T00:29:29;99046.75;;;8.65;79.16
40918;BME280;26644;50.248;19.032;2023-05-19T00:32:34;99048.22;;;8.72;79.00
40918;BME280;26644;50.248;19.032;2023-05-19T00:35:39;99039.84;;;8.79;78.84
40918;BME280;26644;50.248;19.032;2023-05-19T00:38:46;99042.91;;;8.83;78.40
40918;BME280;26644;50.248;19.032;2023-05-19T00:41:51;99038.75;;;8.80;78.07
40918;BME280;26644;50.248;19.032;2023-05-19T00:44:56;99031.63;;;8.79;78.14
40918;BME280;26644;50.248;19.032;2023-05-19T00:48:16;99038.56;;;8.87;78.40
40918;BME280;26644;50.248;19.032;2023-05-19T00:51:37;99034.50;;;8.89;78.29
40918;BME280;26644;50.248;19.032;2023-05-19T00:55:01;99026.22;;;8.84;77.98
40918;BME280;26644;50.248;19.032;2023-05-19T00:58:21;99037.78;;;8.91;78.48
40918;BME280;26644;50.248;19.032;2023-05-19T01:01:44;99026.28;;;8.89;78.36
40918;BME280;26644;50.248;19.032;2023-05-19T01:05:06;99032.16;;;8.98;78.26
40918;BME280;26644;50.248;19.032;2023-05-19T01:08:27;99020.28;;;8.92;78.16
40918;BME280;26644;50.248;19.032;2023-05-19T01:11:49;99012.44;;;8.96;78.12
40918;BME280;26644;50.248;19.032;2023-05-19T01:15:10;99020.38;;;8.98;78.22
40918;BME280;26644;50.248;19.032;2023-05-19T01:18:39;99014.91;;;8.98;78.54
40918;BME280;26644;50.248;19.032;2023-05-19T01:22:25;99014.31;;;8.95;78.63
40918;BME280;26644;50.248;19.032;2023-05-19T01:26:14;99007.41;;;8.93;78.82
40918;BME280;26644;50.248;19.032;2023-05-19T01:30:14;98999.38;;;8.86;79.16
40918;BME280;26644;50.248;19.032;2023-05-19T01:33:42;99003.16;;;8.80;79.01
40918;BME280;26644;50.248;19.032;2023-05-19T01:37:04;98994.81;;;8.70;79.43
40918;BME280;26644;50.248;19.032;2023-05-19T01:40:27;98992.31;;;8.68;79.97
40918;BME280;26644;50.248;19.032;2023-05-19T01:43:48;98999.69;;;8.68;80.16
40918;BME280;26644;50.248;19.032;2023-05-19T01:47:12;98993.41;;;8.67;80.33
40918;BME280;26644;50.248;19.032;2023-05-19T01:50:33;98993.00;;;8.58;80.33
40918;BME280;26644;50.248;19.032;2023-05-19T01:53:52;99000.53;;;8.68;80.39
40918;BME280;26644;50.248;19.032;2023-05-19T01:57:20;99001.09;;;8.70;80.58
40918;BME280;26644;50.248;19.032;2023-05-19T02:00:51;98989.84;;;8.67;80.46
40918;BME280;26644;50.248;19.032;2023-05-19T02:04:27;98998.63;;;8.69;80.78
40918;BME280;26644;50.248;19.032;2023-05-19T02:08:05;98989.59;;;8.68;80.77
40918;BME280;26644;50.248;19.032;2023-05-19T02:11:25;98989.78;;;8.61;80.86
40918;BME280;26644;50.248;19.032;2023-05-19T02:14:44;98984.38;;;8.67;81.01
40918;BME280;26644;50.248;19.032;2023-05-19T02:17:57;98988.25;;;8.71;81.12
40918;BME280;26644;50.248;19.032;2023-05-19T02:21:07;98970.44;;;8.68;80.89
40918;BME280;26644;50.248;19.032;2023-05-19T02:24:14;98963.91;;;8.74;81.05
40918;BME280;26644;50.248;19.032;2023-05-19T02:27:18;98968.63;;;8.79;81.16
40918;BME280;26644;50.248;19.032;2023-05-19T02:30:23;98961.84;;;8.82;80.64
40918;BME280;26644;50.248;19.032;2023-05-19T02:33:28;98958.50;;;8.79;80.43
40918;BME280;26644;50.248;19.032;2023-05-19T02:36:38;98963.72;;;8.81;80.51
40918;BME280;26644;50.248;19.032;2023-05-19T02:39:44;98973.84;;;8.81;80.60
40918;BME280;26644;50.248;19.032;2023-05-19T02:42:49;98976.41;;;8.87;80.58
40918;BME280;26644;50.248;19.032;2023-05-19T02:45:53;98969.91;;;8.93;80.39
40918;BME280;26644;50.248;19.032;2023-05-19T02:49:01;98969.06;;;8.93;80.15
40918;BME280;26644;50.248;19.032;2023-05-19T02:52:08;98971.66;;;9.00;80.16
40918;BME280;26644;50.248;19.032;2023-05-19T02:55:14;98982.38;;;9.01;80.11
40918;BME280;26644;50.248;19.032;2023-05-19T02:58:18;98980.50;;;9.07;79.91
40918;BME280;26644;50.248;19.032;2023-05-19T03:01:38;98979.50;;;9.13;79.97
40918;BME280;26644;50.248;19.032;2023-05-19T03:04:58;98963.59;;;9.15;79.83
40918;BME280;26644;50.248;19.032;2023-05-19T03:08:21;98971.84;;;9.15;79.29
40918;BME280;26644;50.248;19.032;2023-05-19T03:11:41;98969.56;;;9.07;79.53
40918;BME280;26644;50.248;19.032;2023-05-19T03:15:00;98974.09;;;8.96;79.65
40918;BME280;26644;50.248;19.032;2023-05-19T03:18:19;98970.66;;;8.89;79.79
40918;BME280;26644;50.248;19.032;2023-05-19T03:21:39;98973.13;;;8.85;80.07
40918;BME280;26644;50.248;19.032;2023-05-19T03:24:47;98972.47;;;8.78;80.27
40918;BME280;26644;50.248;19.032;2023-05-19T03:27:54;98974.94;;;8.79;80.09
40918;BME280;26644;50.248;19.032;2023-05-19T03:31:00;98982.34;;;8.79;80.42
40918;BME280;26644;50.248;19.032;2023-05-19T03:34:10;98986.22;;;8.83;80.61
40918;BME280;26644;50.248;19.032;2023-05-19T03:37:15;98982.34;;;8.79;80.08
40918;BME280;26644;50.248;19.032;2023-05-19T03:40:22;98982.41;;;8.84;80.25
40918;BME280;26644;50.248;19.032;2023-05-19T03:43:34;98970.56;;;8.78;80.02
40918;BME280;26644;50.248;19.032;2023-05-19T03:46:41;98970.59;;;8.84;80.27
40918;BME280;26644;50.248;19.032;2023-05-19T03:50:19;98974.94;;;8.79;80.19
40918;BME280;26644;50.248;19.032;2023-05-19T03:53:31;98981.06;;;8.87;80.10
40918;BME280;26644;50.248;19.032;2023-05-19T03:56:41;98984.28;;;8.84;80.10
40918;BME280;26644;50.248;19.032;2023-05-19T03:59:46;98988.50;;;8.91;80.00
40918;BME280;26644;50.248;19.032;2023-05-19T04:02:51;98985.47;;;8.88;79.76
40918;BME280;26644;50.248;19.032;2023-05-19T04:05:56;98999.72;;;8.90;79.70
40918;BME280;26644;50.248;19.032;2023-05-19T04:09:15;99002.19;;;8.91;79.88
40918;BME280;26644;50.248;19.032;2023-05-19T04:12:37;99001.59;;;9.06;79.85
40918;BME280;26644;50.248;19.032;2023-05-19T04:15:58;98995.66;;;9.15;79.17
40918;BME280;26644;50.248;19.032;2023-05-19T04:19:17;98996.53;;;9.20;78.95
40918;BME280;26644;50.248;19.032;2023-05-19T04:22:37;98998.81;;;9.28;79.24
40918;BME280;26644;50.248;19.032;2023-05-19T04:25:56;98990.59;;;9.28;78.76
40918;BME280;26644;50.248;19.032;2023-05-19T04:29:19;98998.63;;;9.35;78.02
40918;BME280;26644;50.248;19.032;2023-05-19T04:32:25;98996.97;;;9.34;78.04
40918;BME280;26644;50.248;19.032;2023-05-19T04:35:32;98993.66;;;9.32;78.26
40918;BME280;26644;50.248;19.032;2023-05-19T04:38:39;99000.22;;;9.31;78.20
40918;BME280;26644;50.248;19.032;2023-05-19T04:41:46;98994.44;;;9.27;78.27
40918;BME280;26644;50.248;19.032;2023-05-19T04:44:54;99004.31;;;9.28;78.28
40918;BME280;26644;50.248;19.032;2023-05-19T04:48:02;99005.16;;;9.29;78.27
40918;BME280;26644;50.248;19.032;2023-05-19T04:51:07;98997.16;;;9.27;78.76
40918;BME280;26644;50.248;19.032;2023-05-19T04:54:14;99003.59;;;9.38;79.21
40918;BME280;26644;50.248;19.032;2023-05-19T04:57:20;99008.03;;;9.44;78.47
40918;BME280;26644;50.248;19.032;2023-05-19T05:00:27;99007.97;;;9.39;78.28
40918;BME280;26644;50.248;19.032;2023-05-19T05:03:38;99008.50;;;9.36;78.54
40918;BME280;26644;50.248;19.032;2023-05-19T05:06:44;99000.22;;;9.31;78.79
40918;BME280;26644;50.248;19.032;2023-05-19T05:09:51;98991.69;;;9.27;78.98
40918;BME280;26644;50.248;19.032;2023-05-19T05:13:11;99001.88;;;9.32;78.77
40918;BME280;26644;50.248;19.032;2023-05-19T05:16:35;99001.94;;;9.37;79.19
40918;BME280;26644;50.248;19.032;2023-05-19T05:20:00;99003.97;;;9.47;79.06
40918;BME280;26644;50.248;19.032;2023-05-19T05:23:21;99002.88;;;9.48;79.04
40918;BME280;26644;50.248;19.032;2023-05-19T05:26:42;98993.63;;;9.54;78.80
40918;BME280;26644;50.248;19.032;2023-05-19T05:29:48;99001.28;;;9.52;78.84
40918;BME280;26644;50.248;19.032;2023-05-19T05:32:57;99004.94;;;9.63;78.81
40918;BME280;26644;50.248;19.032;2023-05-19T05:36:07;99009.03;;;9.60;78.59
40918;BME280;26644;50.248;19.032;2023-05-19T05:39:13;99017.34;;;9.71;78.68
40918;BME280;26644;50.248;19.032;2023-05-19T05:42:21;99001.28;;;9.80;78.39
40918;BME280;26644;50.248;19.032;2023-05-19T05:45:26;99015.47;;;10.04;78.24
40918;BME280;26644;50.248;19.032;2023-05-19T05:48:36;99012.84;;;10.19;77.19
40918;BME280;26644;50.248;19.032;2023-05-19T05:51:43;99021.13;;;10.24;76.72
40918;BME280;26644;50.248;19.032;2023-05-19T05:54:50;99012.34;;;10.27;76.83
40918;BME280;26644;50.248;19.032;2023-05-19T05:57:56;99033.88;;;10.46;76.47
40918;BME280;26644;50.248;19.032;2023-05-19T06:01:03;99034.84;;;10.62;75.67
40918;BME280;26644;50.248;19.032;2023-05-19T06:04:13;99032.22;;;10.77;75.63
40918;BME280;26644;50.248;19.032;2023-05-19T06:07:18;99032.22;;;10.88;75.08
40918;BME280;26644;50.248;19.032;2023-05-19T06:10:23;99039.41;;;10.94;74.43
40918;BME280;26644;50.248;19.032;2023-05-19T06:13:29;99042.94;;;10.84;74.26
40918;BME280;26644;50.248;19.032;2023-05-19T06:16:34;99033.06;;;10.83;74.65
40918;BME280;26644;50.248;19.032;2023-05-19T06:19:42;99027.84;;;10.87;74.70
40918;BME280;26644;50.248;19.032;2023-05-19T06:22:46;99041.94;;;11.01;74.70
40918;BME280;26644;50.248;19.032;2023-05-19T06:25:54;99039.75;;;11.03;74.20
40918;BME280;26644;50.248;19.032;2023-05-19T06:28:59;99043.00;;;11.00;73.96
40918;BME280;26644;50.248;19.032;2023-05-19T06:32:04;99049.00;;;10.86;73.95
40918;BME280;26644;50.248;19.032;2023-05-19T06:35:27;99043.22;;;10.88;74.58
40918;BME280;26644;50.248;19.032;2023-05-19T06:38:46;99051.22;;;10.94;74.53
40918;BME280;26644;50.248;19.032;2023-05-19T06:42:06;99035.09;;;11.08;74.93
40918;BME280;26644;50.248;19.032;2023-05-19T06:45:47;99031.25;;;11.09;73.88
40918;BME280;26644;50.248;19.032;2023-05-19T06:49:07;99035.09;;;11.08;73.87
40918;BME280;26644;50.248;19.032;2023-05-19T06:52:36;99051.06;;;11.17;73.57
40918;BME280;26644;50.248;19.032;2023-05-19T06:55:41;99043.09;;;11.15;73.64
40918;BME280;26644;50.248;19.032;2023-05-19T06:58:47;99048.84;;;11.14;73.59
40918;BME280;26644;50.248;19.032;2023-05-19T07:01:55;99048.84;;;11.08;74.06
40918;BME280;26644;50.248;19.032;2023-05-19T07:04:59;99041.41;;;11.09;74.30
40918;BME280;26644;50.248;19.032;2023-05-19T07:08:07;99033.47;;;11.13;74.43
40918;BME280;26644;50.248;19.032;2023-05-19T07:11:27;99042.88;;;11.27;73.88
40918;BME280;26644;50.248;19.032;2023-05-19T07:14:46;99045.63;;;11.32;74.14
40918;BME280;26644;50.248;19.032;2023-05-19T07:18:07;99035.19;;;11.34;73.39
40918;BME280;26644;50.248;19.032;2023-05-19T07:21:27;99028.28;;;11.21;73.57
40918;BME280;26644;50.248;19.032;2023-05-19T07:24:49;99034.63;;;11.32;73.78
40918;BME280;26644;50.248;19.032;2023-05-19T07:27:54;99036.84;;;11.35;73.59
40918;BME280;26644;50.248;19.032;2023-05-19T07:30:59;99044.28;;;11.45;73.81
40918;BME280;26644;50.248;19.032;2023-05-19T07:34:04;99044.63;;;11.59;73.66
40918;BME280;26644;50.248;19.032;2023-05-19T07:37:09;99034.16;;;11.56;72.86
40918;BME280;26644;50.248;19.032;2023-05-19T07:40:17;99040.47;;;11.51;72.70
40918;BME280;26644;50.248;19.032;2023-05-19T07:43:21;99051.69;;;11.39;72.79
40918;BME280;26644;50.248;19.032;2023-05-19T07:46:41;99044.53;;;11.38;73.44
40918;BME280;26644;50.248;19.032;2023-05-19T07:49:46;99034.91;;;11.31;73.05
40918;BME280;26644;50.248;19.032;2023-05-19T07:52:51;99044.28;;;11.40;73.31
40918;BME280;26644;50.248;19.032;2023-05-19T07:55:58;99048.09;;;11.34;73.10
40918;BME280;26644;50.248;19.032;2023-05-19T07:59:03;99057.22;;;11.44;73.26
40918;BME280;26644;50.248;19.032;2023-05-19T08:02:09;99050.41;;;11.68;72.96
40918;BME280;26644;50.248;19.032;2023-05-19T08:05:13;99051.53;;;11.82;72.18
40918;BME280;26644;50.248;19.032;2023-05-19T08:08:19;99053.16;;;11.78;71.89
40918;BME280;26644;50.248;19.032;2023-05-19T08:11:26;99049.06;;;11.86;71.91
40918;BME280;26644;50.248;19.032;2023-05-19T08:14:31;99057.31;;;11.86;71.93
40918;BME280;26644;50.248;19.032;2023-05-19T08:17:36;99061.78;;;12.02;71.88
40918;BME280;26644;50.248;19.032;2023-05-19T08:20:41;99055.44;;;12.07;71.01
40918;BME280;26644;50.248;19.032;2023-05-19T08:23:46;99053.53;;;12.02;70.71
40918;BME280;26644;50.248;19.032;2023-05-19T08:26:54;99049.94;;;12.02;71.02
40918;BME280;26644;50.248;19.032;2023-05-19T08:30:14;99059.59;;;12.15;71.14
40918;BME280;26644;50.248;19.032;2023-05-19T08:33:19;99047.72;;;12.19;71.01
40918;BME280;26644;50.248;19.032;2023-05-19T08:36:24;99062.34;;;12.30;70.22
40918;BME280;26644;50.248;19.032;2023-05-19T08:39:30;99068.13;;;12.18;70.33
40918;BME280;26644;50.248;19.032;2023-05-19T08:42:37;99056.25;;;12.13;71.17
40918;BME280;26644;50.248;19.032;2023-05-19T08:45:44;99052.97;;;12.26;70.80
40918;BME280;26644;50.248;19.032;2023-05-19T08:48:54;99055.72;;;12.36;70.54
40918;BME280;26644;50.248;19.032;2023-05-19T08:52:15;99056.53;;;12.52;70.54
40918;BME280;26644;50.248;19.032;2023-05-19T08:55:32;99054.59;;;12.68;69.85
40918;BME280;26644;50.248;19.032;2023-05-19T08:58:43;99061.47;;;12.66;69.32
40918;BME280;26644;50.248;19.032;2023-05-19T09:01:53;99051.56;;;12.70;69.76
40918;BME280;26644;50.248;19.032;2023-05-19T09:05:00;99060.59;;;12.91;68.99
40918;BME280;26644;50.248;19.032;2023-05-19T09:08:05;99064.69;;;13.04;68.64
40918;BME280;26644;50.248;19.032;2023-05-19T09:11:11;99058.59;;;13.12;67.66
40918;BME280;26644;50.248;19.032;2023-05-19T09:14:18;99060.84;;;13.05;67.64
40918;BME280;26644;50.248;19.032;2023-05-19T09:17:24;99063.31;;;13.01;67.77
40918;BME280;26644;50.248;19.032;2023-05-19T09:20:29;99070.50;;;12.97;68.06
40918;BME280;26644;50.248;19.032;2023-05-19T09:23:35;99068.31;;;12.99;68.22
40918;BME280;26644;50.248;19.032;2023-05-19T09:26:41;99070.81;;;12.90;68.00
40918;BME280;26644;50.248;19.032;2023-05-19T09:29:50;99073.84;;;12.84;68.35
40918;BME280;26644;50.248;19.032;2023-05-19T09:33:09;99073.56;;;12.90;68.12
40918;BME280;26644;50.248;19.032;2023-05-19T09:36:29;99068.59;;;12.92;68.32
40918;BME280;26644;50.248;19.032;2023-05-19T09:39:48;99056.50;;;12.83;68.25
40918;BME280;26644;50.248;19.032;2023-05-19T09:43:08;99062.53;;;12.95;68.26
40918;BME280;26644;50.248;19.032;2023-05-19T09:46:30;99063.34;;;12.96;68.36
40918;BME280;26644;50.248;19.032;2023-05-19T09:49:45;99059.78;;;12.90;68.48
40918;BME280;26644;50.248;19.032;2023-05-19T09:52:52;99058.91;;;13.00;68.60
40918;BME280;26644;50.248;19.032;2023-05-19T09:55:57;99055.06;;;13.01;68.42
40918;BME280;26644;50.248;19.032;2023-05-19T09:59:04;99047.84;;;13.10;68.38
40918;BME280;26644;50.248;19.032;2023-05-19T10:02:16;99054.16;;;13.16;68.18
40918;BME280;26644;50.248;19.032;2023-05-19T10:05:26;99051.13;;;13.28;67.89
40918;BME280;26644;50.248;19.032;2023-05-19T10:08:33;99051.69;;;13.30;67.37
40918;BME280;26644;50.248;19.032;2023-05-19T10:11:38;99054.47;;;13.25;67.57
40918;BME280;26644;50.248;19.032;2023-05-19T10:14:43;99053.34;;;13.16;67.70
40918;BME280;26644;50.248;19.032;2023-05-19T10:17:52;99048.41;;;13.18;68.34
40918;BME280;26644;50.248;19.032;2023-05-19T10:20:59;99045.06;;;13.31;68.04
40918;BME280;26644;50.248;19.032;2023-05-19T10:24:05;99050.53;;;13.41;67.57
40918;BME280;26644;50.248;19.032;2023-05-19T10:27:27;99053.88;;;13.28;67.38
40918;BME280;26644;50.248;19.032;2023-05-19T10:30:53;99036.59;;;13.07;68.17
40918;BME280;26644;50.248;19.032;2023-05-19T10:34:41;99046.75;;;13.17;68.64
40918;BME280;26644;50.248;19.032;2023-05-19T10:38:11;99035.41;;;13.34;68.63
40918;BME280;26644;50.248;19.032;2023-05-19T10:41:30;99029.31;;;13.37;68.24
40918;BME280;26644;50.248;19.032;2023-05-19T10:44:56;99039.13;;;13.53;68.15
40918;BME280;26644;50.248;19.032;2023-05-19T10:48:10;99045.66;;;13.73;67.90
40918;BME280;26644;50.248;19.032;2023-05-19T10:51:20;99037.63;;;13.82;67.70
40918;BME280;26644;50.248;19.032;2023-05-19T10:54:38;99039.44;;;13.97;67.15
40918;BME280;26644;50.248;19.032;2023-05-19T10:57:52;99045.19;;;14.05;66.45
40918;BME280;26644;50.248;19.032;2023-05-19T11:00:59;99052.84;;;14.14;66.69
40918;BME280;26644;50.248;19.032;2023-05-19T11:04:06;99039.03;;;14.14;66.18
40918;BME280;26644;50.248;19.032;2023-05-19T11:07:18;99042.00;;;14.22;66.02
40918;BME280;26644;50.248;19.032;2023-05-19T11:10:25;99008.56;;;14.24;66.10
40918;BME280;26644;50.248;19.032;2023-05-19T11:13:30;99043.81;;;14.42;65.75
40918;BME280;26644;50.248;19.032;2023-05-19T11:16:35;99042.63;;;14.49;65.24
40918;BME280;26644;50.248;19.032;2023-05-19T11:19:51;99044.56;;;14.48;64.95
40918;BME280;26644;50.248;19.032;2023-05-19T11:23:03;99044.56;;;14.48;65.30
40918;BME280;26644;50.248;19.032;2023-05-19T11:26:09;99043.38;;;14.59;65.08
40918;BME280;26644;50.248;19.032;2023-05-19T11:29:16;99047.06;;;14.74;64.98
40918;BME280;26644;50.248;19.032;2023-05-19T11:32:26;99050.56;;;14.85;64.28
40918;BME280;26644;50.248;19.032;2023-05-19T11:35:32;99044.34;;;14.98;64.21
40918;BME280;26644;50.248;19.032;2023-05-19T11:38:41;99048.13;;;15.07;63.84
40918;BME280;26644;50.248;19.032;2023-05-19T11:41:50;99050.53;;;15.14;63.88
40918;BME280;26644;50.248;19.032;2023-05-19T11:44:55;99048.31;;;15.11;62.71
40918;BME280;26644;50.248;19.032;2023-05-19T11:48:00;99053.94;;;15.06;63.10
40918;BME280;26644;50.248;19.032;2023-05-19T11:51:06;99050.56;;;15.09;63.49
40918;BME280;26644;50.248;19.032;2023-05-19T11:54:14;99058.56;;;15.10;63.06
40918;BME280;26644;50.248;19.032;2023-05-19T11:57:34;99053.94;;;15.06;63.19
40918;BME280;26644;50.248;19.032;2023-05-19T12:00:53;99049.03;;;14.98;63.25
40918;BME280;26644;50.248;19.032;2023-05-19T12:04:13;99046.97;;;14.84;63.33
40918;BME280;26644;50.248;19.032;2023-05-19T12:07:32;99050.63;;;14.80;64.01
40918;BME280;26644;50.248;19.032;2023-05-19T12:10:55;99046.72;;;14.81;64.41
40918;BME280;26644;50.248;19.032;2023-05-19T12:14:01;99056.28;;;14.93;64.47
40918;BME280;26644;50.248;19.032;2023-05-19T12:17:12;99051.50;;;14.99;63.78
40918;BME280;26644;50.248;19.032;2023-05-19T12:20:19;99050.94;;;15.02;63.74
40918;BME280;26644;50.248;19.032;2023-05-19T12:23:24;99043.44;;;15.03;63.36
40918;BME280;26644;50.248;19.032;2023-05-19T12:26:34;99038.75;;;15.03;63.47
40918;BME280;26644;50.248;19.032;2023-05-19T12:29:39;99042.78;;;15.11;63.37
40918;BME280;26644;50.248;19.032;2023-05-19T12:33:00;99029.50;;;15.13;63.19
40918;BME280;26644;50.248;19.032;2023-05-19T12:36:22;99029.28;;;15.09;63.31
40918;BME280;26644;50.248;19.032;2023-05-19T12:39:29;99028.41;;;15.14;63.20
40918;BME280;26644;50.248;19.032;2023-05-19T12:42:36;99028.75;;;15.07;63.42
40918;BME280;26644;50.248;19.032;2023-05-19T12:45:42;99033.69;;;15.10;63.18
40918;BME280;26644;50.248;19.032;2023-05-19T12:48:47;99026.34;;;15.01;63.69
40918;BME280;26644;50.248;19.032;2023-05-19T12:51:52;99035.16;;;15.03;64.16
40918;BME280;26644;50.248;19.032;2023-05-19T12:54:59;99030.47;;;15.03;63.88
40918;BME280;26644;50.248;19.032;2023-05-19T12:58:09;99021.50;;;15.11;64.00
40918;BME280;26644;50.248;19.032;2023-05-19T13:01:16;99016.59;;;15.27;63.49
40918;BME280;26644;50.248;19.032;2023-05-19T13:04:21;99031.78;;;15.30;62.90
40918;BME280;26644;50.248;19.032;2023-05-19T13:07:26;99022.81;;;15.19;63.17
40918;BME280;26644;50.248;19.032;2023-05-19T13:10:33;99025.78;;;15.23;63.29
40918;BME280;26644;50.248;19.032;2023-05-19T13:13:41;99030.38;;;15.33;63.75
40918;BME280;26644;50.248;19.032;2023-05-19T13:16:46;99025.59;;;15.38;63.26
40918;BME280;26644;50.248;19.032;2023-05-19T13:19:51;99020.59;;;15.40;63.51
40918;BME280;26644;50.248;19.032;2023-05-19T13:22:56;99026.78;;;15.56;63.16
40918;BME280;26644;50.248;19.032;2023-05-19T13:26:15;99029.00;;;15.73;62.74
40918;BME280;26644;50.248;19.032;2023-05-19T13:34:02;99030.06;;;15.58;62.49
40918;BME280;26644;50.248;19.032;2023-05-19T13:41:34;99020.41;;;15.75;62.62
40918;BME280;26644;50.248;19.032;2023-05-19T13:44:41;99017.41;;;15.71;62.11
40918;BME280;26644;50.248;19.032;2023-05-19T13:47:46;99016.06;;;15.69;61.89
40918;BME280;26644;50.248;19.032;2023-05-19T13:50:51;99008.00;;;15.72;61.99
40918;BME280;26644;50.248;19.032;2023-05-19T13:53:56;99014.19;;;15.83;61.93
40918;BME280;26644;50.248;19.032;2023-05-19T13:57:04;99008.44;;;15.80;62.11
40918;BME280;26644;50.248;19.032;2023-05-19T14:00:13;99010.47;;;15.74;62.37
40918;BME280;26644;50.248;19.032;2023-05-19T14:03:19;99017.19;;;15.68;62.68
40918;BME280;26644;50.248;19.032;2023-05-19T14:06:24;99018.97;;;15.58;62.73
40918;BME280;26644;50.248;19.032;2023-05-19T14:09:30;99020.28;;;15.42;63.26
40918;BME280;26644;50.248;19.032;2023-05-19T14:12:34;99021.72;;;15.39;63.99
40918;BME280;26644;50.248;19.032;2023-05-19T14:15:42;99023.25;;;15.26;63.16
40918;BME280;26644;50.248;19.032;2023-05-19T14:18:47;99019.19;;;15.19;63.76
40918;BME280;26644;50.248;19.032;2023-05-19T14:21:52;99020.50;;;15.02;64.21
40918;BME280;26644;50.248;19.032;2023-05-19T14:24:57;99030.28;;;14.94;64.35
40918;BME280;26644;50.248;19.032;2023-05-19T14:28:05;99027.66;;;14.79;65.01
40918;BME280;26644;50.248;19.032;2023-05-19T14:31:14;99031.56;;;14.78;65.25
40918;BME280;26644;50.248;19.032;2023-05-19T14:34:19;99033.78;;;14.76;65.12
40918;BME280;26644;50.248;19.032;2023-05-19T14:37:23;99023.34;;;14.73;65.56
40918;BME280;26644;50.248;19.032;2023-05-19T14:40:29;99029.06;;;14.76;65.70
40918;BME280;26644;50.248;19.032;2023-05-19T14:43:34;99030.72;;;14.77;65.71
40918;BME280;26644;50.248;19.032;2023-05-19T14:46:41;99018.38;;;14.70;65.97
40918;BME280;26644;50.248;19.032;2023-05-19T14:49:46;99032.97;;;14.75;66.37
40918;BME280;26644;50.248;19.032;2023-05-19T14:52:51;99028.63;;;14.69;66.47
40918;BME280;26644;50.248;19.032;2023-05-19T14:55:56;99032.59;;;14.58;66.32
40918;BME280;26644;50.248;19.032;2023-05-19T14:59:01;99025.47;;;14.52;66.63
40918;BME280;26644;50.248;19.032;2023-05-19T15:02:09;99021.34;;;14.49;66.96
40918;BME280;26644;50.248;19.032;2023-05-19T15:05:14;99027.69;;;14.50;67.15
40918;BME280;26644;50.248;19.032;2023-05-19T15:08:18;99019.72;;;14.48;67.29
40918;BME280;26644;50.248;19.032;2023-05-19T15:11:24;99020.66;;;14.33;67.61
40918;BME280;26644;50.248;19.032;2023-05-19T15:14:44;99019.06;;;14.22;67.94
40918;BME280;26644;50.248;19.032;2023-05-19T15:18:06;99028.00;;;14.14;68.37
40918;BME280;26644;50.248;19.032;2023-05-19T15:21:26;99028.91;;;14.04;68.55
40918;BME280;26644;50.248;19.032;2023-05-19T15:24:46;99019.28;;;13.96;69.10
40918;BME280;26644;50.248;19.032;2023-05-19T15:28:05;99020.69;;;13.93;69.08
40918;BME280;26644;50.248;19.032;2023-05-19T15:31:25;99020.72;;;13.88;69.13
40918;BME280;26644;50.248;19.032;2023-05-19T15:34:47;99019.06;;;13.87;69.53
40918;BME280;26644;50.248;19.032;2023-05-19T15:38:06;99015.56;;;13.76;69.76
40918;BME280;26644;50.248;19.032;2023-05-19T15:41:26;99012.84;;;13.71;70.36
40918;BME280;26644;50.248;19.032;2023-05-19T15:44:45;99011.13;;;13.81;70.10
40918;BME280;26644;50.248;19.032;2023-05-19T15:48:05;99008.13;;;13.72;70.44
40918;BME280;26644;50.248;19.032;2023-05-19T15:51:27;99003.44;;;13.72;70.70
40918;BME280;26644;50.248;19.032;2023-05-19T15:54:47;98997.09;;;13.72;71.04
40918;BME280;26644;50.248;19.032;2023-05-19T15:58:07;99005.88;;;13.79;71.00
40918;BME280;26644;50.248;19.032;2023-05-19T16:01:26;99007.56;;;13.75;71.25
40918;BME280;26644;50.248;19.032;2023-05-19T16:04:46;99011.72;;;13.72;71.30
40918;BME280;26644;50.248;19.032;2023-05-19T16:08:08;99008.41;;;13.70;71.61
40918;BME280;26644;50.248;19.032;2023-05-19T16:11:27;99015.84;;;13.75;71.47
40918;BME280;26644;50.248;19.032;2023-05-19T16:14:33;99008.69;;;13.74;71.18
40918;BME280;26644;50.248;19.032;2023-05-19T16:17:37;99006.78;;;13.69;71.37
40918;BME280;26644;50.248;19.032;2023-05-19T16:20:43;99018.63;;;13.75;71.32
40918;BME280;26644;50.248;19.032;2023-05-19T16:23:50;99022.22;;;13.70;71.52
40918;BME280;26644;50.248;19.032;2023-05-19T16:26:55;99023.94;;;13.61;71.46
40918;BME280;26644;50.248;19.032;2023-05-19T16:30:00;99017.66;;;13.50;71.98
40918;BME280;26644;50.248;19.032;2023-05-19T16:33:06;99031.19;;;13.47;72.05
40918;BME280;26644;50.248;19.032;2023-05-19T16:36:11;99025.66;;;13.47;72.45
40918;BME280;26644;50.248;19.032;2023-05-19T16:39:19;99028.47;;;13.41;72.48
40918;BME280;26644;50.248;19.032;2023-05-19T16:42:23;99015.53;;;13.37;72.64
40918;BME280;26644;50.248;19.032;2023-05-19T16:45:29;99016.03;;;13.44;72.85
40918;BME280;26644;50.248;19.032;2023-05-19T16:48:33;99023.47;;;13.43;72.77
40918;BME280;26644;50.248;19.032;2023-05-19T16:51:38;99019.34;;;13.41;72.79
40918;BME280;26644;50.248;19.032;2023-05-19T16:54:45;99032.56;;;13.44;72.80